Otway, Ohio
Current Conditions -  °F | °C
As of 3:35 AM on Friday 28 Nov 2014 (Local Time) from KDWU Reporting Station
Overcast Overcast  
Wind Chill: 23°   Ceiling: 3900
Heat Index: 30°   Visibility: 10mi
Dew Point: 18°   Wind: 7mph
Humidity: 60%   Direction: 350°N
Pressure: 30.37"   Gusts: NA
Location:  38.87°N, 83.19°W
Report Text: KDWU 280835Z AUTO 35006KT 10SM FEW026 OVC039 M01/M08 A3037 RMK AO1
Loading
Personal Weather Stations






























Interactive Weather Map New forecast layout! Learn more

10-Day Weather Forecast

Advertisements
Track Severe Weather on mobile